sensor_id;sensor_type;location;lat;lon;timestamp;P1;durP1;ratioP1;P2;durP2;ratioP2
37785;SDS011;23625;48.784;9.336;2022-08-19T00:00:14;18.92;;;13.00;;
37785;SDS011;23625;48.784;9.336;2022-08-19T00:02:40;20.77;;;13.85;;
37785;SDS011;23625;48.784;9.336;2022-08-19T00:05:07;19.60;;;13.68;;
37785;SDS011;23625;48.784;9.336;2022-08-19T00:07:34;21.45;;;13.95;;
37785;SDS011;23625;48.784;9.336;2022-08-19T00:09:59;19.25;;;13.50;;
37785;SDS011;23625;48.784;9.336;2022-08-19T00:12:25;20.27;;;14.43;;
37785;SDS011;23625;48.784;9.336;2022-08-19T00:14:51;24.48;;;13.88;;
37785;SDS011;23625;48.784;9.336;2022-08-19T00:17:19;19.92;;;14.45;;
37785;SDS011;23625;48.784;9.336;2022-08-19T00:19:45;22.05;;;14.95;;
37785;SDS011;23625;48.784;9.336;2022-08-19T00:22:11;21.95;;;15.32;;
37785;SDS011;23625;48.784;9.336;2022-08-19T00:24:37;20.27;;;14.15;;
37785;SDS011;23625;48.784;9.336;2022-08-19T00:27:03;21.15;;;14.35;;
37785;SDS011;23625;48.784;9.336;2022-08-19T00:29:29;25.85;;;15.70;;
37785;SDS011;23625;48.784;9.336;2022-08-19T00:31:56;20.77;;;15.15;;
37785;SDS011;23625;48.784;9.336;2022-08-19T00:34:23;19.83;;;14.10;;
37785;SDS011;23625;48.784;9.336;2022-08-19T00:36:51;21.50;;;14.43;;
37785;SDS011;23625;48.784;9.336;2022-08-19T00:39:16;22.20;;;14.98;;
37785;SDS011;23625;48.784;9.336;2022-08-19T00:41:43;22.50;;;15.25;;
37785;SDS011;23625;48.784;9.336;2022-08-19T00:46:40;23.48;;;15.88;;
37785;SDS011;23625;48.784;9.336;2022-08-19T00:49:19;25.50;;;15.15;;
37785;SDS011;23625;48.784;9.336;2022-08-19T00:51:47;21.90;;;14.73;;
37785;SDS011;23625;48.784;9.336;2022-08-19T00:54:15;22.48;;;14.45;;
37785;SDS011;23625;48.784;9.336;2022-08-19T00:56:41;24.00;;;15.75;;
37785;SDS011;23625;48.784;9.336;2022-08-19T00:59:09;23.67;;;16.08;;
37785;SDS011;23625;48.784;9.336;2022-08-19T01:01:38;24.52;;;15.73;;
37785;SDS011;23625;48.784;9.336;2022-08-19T01:04:06;23.40;;;15.88;;
37785;SDS011;23625;48.784;9.336;2022-08-19T01:06:32;21.88;;;14.65;;
37785;SDS011;23625;48.784;9.336;2022-08-19T01:08:59;22.75;;;15.10;;
37785;SDS011;23625;48.784;9.336;2022-08-19T01:11:26;21.10;;;14.05;;
37785;SDS011;23625;48.784;9.336;2022-08-19T01:13:53;24.50;;;15.18;;
37785;SDS011;23625;48.784;9.336;2022-08-19T01:16:20;23.15;;;15.73;;
37785;SDS011;23625;48.784;9.336;2022-08-19T01:18:49;23.20;;;15.48;;
37785;SDS011;23625;48.784;9.336;2022-08-19T01:23:53;20.13;;;14.93;;
37785;SDS011;23625;48.784;9.336;2022-08-19T01:26:20;22.00;;;14.90;;
37785;SDS011;23625;48.784;9.336;2022-08-19T01:28:49;22.98;;;15.35;;
37785;SDS011;23625;48.784;9.336;2022-08-19T01:31:19;25.15;;;14.93;;
37785;SDS011;23625;48.784;9.336;2022-08-19T01:33:49;30.58;;;14.75;;
37785;SDS011;23625;48.784;9.336;2022-08-19T01:36:39;23.33;;;14.93;;
37785;SDS011;23625;48.784;9.336;2022-08-19T01:39:14;20.67;;;13.52;;
37785;SDS011;23625;48.784;9.336;2022-08-19T01:41:42;18.40;;;13.75;;
37785;SDS011;23625;48.784;9.336;2022-08-19T01:44:08;26.42;;;14.68;;
37785;SDS011;23625;48.784;9.336;2022-08-19T01:46:35;21.80;;;14.93;;
37785;SDS011;23625;48.784;9.336;2022-08-19T01:49:01;20.55;;;14.45;;
37785;SDS011;23625;48.784;9.336;2022-08-19T01:51:28;27.70;;;15.57;;
37785;SDS011;23625;48.784;9.336;2022-08-19T01:53:55;24.80;;;16.70;;
37785;SDS011;23625;48.784;9.336;2022-08-19T01:56:22;25.05;;;15.65;;
37785;SDS011;23625;48.784;9.336;2022-08-19T01:58:49;26.73;;;16.13;;
37785;SDS011;23625;48.784;9.336;2022-08-19T02:01:20;24.35;;;15.50;;
37785;SDS011;23625;48.784;9.336;2022-08-19T02:03:46;26.88;;;16.70;;
37785;SDS011;23625;48.784;9.336;2022-08-19T02:06:12;23.48;;;15.70;;
37785;SDS011;23625;48.784;9.336;2022-08-19T02:08:38;24.52;;;15.45;;
37785;SDS011;23625;48.784;9.336;2022-08-19T02:11:05;24.88;;;15.55;;
37785;SDS011;23625;48.784;9.336;2022-08-19T02:13:32;23.30;;;16.33;;
37785;SDS011;23625;48.784;9.336;2022-08-19T02:15:59;28.00;;;18.05;;
37785;SDS011;23625;48.784;9.336;2022-08-19T02:18:24;24.83;;;15.50;;
37785;SDS011;23625;48.784;9.336;2022-08-19T02:20:51;26.95;;;16.20;;
37785;SDS011;23625;48.784;9.336;2022-08-19T02:23:17;26.70;;;17.00;;
37785;SDS011;23625;48.784;9.336;2022-08-19T02:25:44;26.95;;;16.45;;
37785;SDS011;23625;48.784;9.336;2022-08-19T02:28:11;25.45;;;16.20;;
37785;SDS011;23625;48.784;9.336;2022-08-19T02:30:37;26.33;;;16.25;;
37785;SDS011;23625;48.784;9.336;2022-08-19T02:33:04;29.90;;;17.60;;
37785;SDS011;23625;48.784;9.336;2022-08-19T02:35:30;29.30;;;18.10;;
37785;SDS011;23625;48.784;9.336;2022-08-19T02:37:56;29.10;;;17.75;;
37785;SDS011;23625;48.784;9.336;2022-08-19T02:40:40;28.63;;;16.90;;
37785;SDS011;23625;48.784;9.336;2022-08-19T02:43:06;31.83;;;17.98;;
37785;SDS011;23625;48.784;9.336;2022-08-19T02:45:33;28.83;;;17.85;;
37785;SDS011;23625;48.784;9.336;2022-08-19T02:48:00;31.13;;;17.90;;
37785;SDS011;23625;48.784;9.336;2022-08-19T02:50:27;27.25;;;17.80;;
37785;SDS011;23625;48.784;9.336;2022-08-19T02:52:52;32.67;;;19.30;;
37785;SDS011;23625;48.784;9.336;2022-08-19T02:55:18;32.65;;;18.35;;
37785;SDS011;23625;48.784;9.336;2022-08-19T02:57:43;30.42;;;19.05;;
37785;SDS011;23625;48.784;9.336;2022-08-19T03:00:09;30.17;;;18.58;;
37785;SDS011;23625;48.784;9.336;2022-08-19T03:02:38;32.60;;;18.55;;
37785;SDS011;23625;48.784;9.336;2022-08-19T03:05:05;32.92;;;19.98;;
37785;SDS011;23625;48.784;9.336;2022-08-19T03:07:32;32.53;;;18.83;;
37785;SDS011;23625;48.784;9.336;2022-08-19T03:09:58;30.27;;;19.38;;
37785;SDS011;23625;48.784;9.336;2022-08-19T03:12:23;34.08;;;20.48;;
37785;SDS011;23625;48.784;9.336;2022-08-19T03:14:49;29.02;;;18.92;;
37785;SDS011;23625;48.784;9.336;2022-08-19T03:17:15;29.70;;;18.27;;
37785;SDS011;23625;48.784;9.336;2022-08-19T03:19:41;37.65;;;22.52;;
37785;SDS011;23625;48.784;9.336;2022-08-19T03:22:08;35.03;;;21.52;;
37785;SDS011;23625;48.784;9.336;2022-08-19T03:24:34;42.65;;;21.00;;
37785;SDS011;23625;48.784;9.336;2022-08-19T03:27:00;36.70;;;19.85;;
37785;SDS011;23625;48.784;9.336;2022-08-19T03:29:27;35.65;;;22.05;;
37785;SDS011;23625;48.784;9.336;2022-08-19T03:31:53;37.65;;;21.92;;
37785;SDS011;23625;48.784;9.336;2022-08-19T03:34:24;35.53;;;22.50;;
37785;SDS011;23625;48.784;9.336;2022-08-19T03:36:51;36.97;;;21.58;;
37785;SDS011;23625;48.784;9.336;2022-08-19T03:39:22;33.88;;;20.35;;
37785;SDS011;23625;48.784;9.336;2022-08-19T03:41:49;36.85;;;22.35;;
37785;SDS011;23625;48.784;9.336;2022-08-19T03:44:17;38.50;;;22.45;;
37785;SDS011;23625;48.784;9.336;2022-08-19T03:46:50;41.60;;;22.30;;
37785;SDS011;23625;48.784;9.336;2022-08-19T03:49:24;39.78;;;21.98;;
37785;SDS011;23625;48.784;9.336;2022-08-19T03:51:53;35.85;;;20.90;;
37785;SDS011;23625;48.784;9.336;2022-08-19T03:54:21;36.97;;;20.95;;
37785;SDS011;23625;48.784;9.336;2022-08-19T03:56:48;33.72;;;21.02;;
37785;SDS011;23625;48.784;9.336;2022-08-19T03:59:16;33.97;;;21.20;;
37785;SDS011;23625;48.784;9.336;2022-08-19T04:01:44;35.63;;;21.95;;
37785;SDS011;23625;48.784;9.336;2022-08-19T04:04:10;38.20;;;21.95;;
37785;SDS011;23625;48.784;9.336;2022-08-19T04:06:37;35.63;;;21.25;;
37785;SDS011;23625;48.784;9.336;2022-08-19T04:09:05;35.40;;;20.85;;
37785;SDS011;23625;48.784;9.336;2022-08-19T04:11:37;40.38;;;22.77;;
37785;SDS011;23625;48.784;9.336;2022-08-19T04:14:08;39.65;;;23.52;;
37785;SDS011;23625;48.784;9.336;2022-08-19T04:16:35;41.22;;;23.23;;
37785;SDS011;23625;48.784;9.336;2022-08-19T04:19:02;39.22;;;24.30;;
37785;SDS011;23625;48.784;9.336;2022-08-19T04:21:29;44.13;;;25.77;;
37785;SDS011;23625;48.784;9.336;2022-08-19T04:23:55;40.78;;;24.60;;
37785;SDS011;23625;48.784;9.336;2022-08-19T04:26:26;41.30;;;24.27;;
37785;SDS011;23625;48.784;9.336;2022-08-19T04:28:53;41.92;;;23.80;;
37785;SDS011;23625;48.784;9.336;2022-08-19T04:31:24;39.28;;;24.30;;
37785;SDS011;23625;48.784;9.336;2022-08-19T04:33:52;42.92;;;25.60;;
37785;SDS011;23625;48.784;9.336;2022-08-19T04:36:29;37.00;;;23.08;;
37785;SDS011;23625;48.784;9.336;2022-08-19T04:38:58;40.92;;;24.08;;
37785;SDS011;23625;48.784;9.336;2022-08-19T04:41:34;39.08;;;23.38;;
37785;SDS011;23625;48.784;9.336;2022-08-19T04:44:19;39.97;;;23.60;;
37785;SDS011;23625;48.784;9.336;2022-08-19T04:46:46;41.42;;;24.98;;
37785;SDS011;23625;48.784;9.336;2022-08-19T04:49:13;41.10;;;24.55;;
37785;SDS011;23625;48.784;9.336;2022-08-19T04:51:43;45.25;;;26.20;;
37785;SDS011;23625;48.784;9.336;2022-08-19T04:54:10;37.45;;;22.80;;
37785;SDS011;23625;48.784;9.336;2022-08-19T04:56:36;38.67;;;24.23;;
37785;SDS011;23625;48.784;9.336;2022-08-19T04:59:03;38.78;;;24.65;;
37785;SDS011;23625;48.784;9.336;2022-08-19T05:01:29;41.90;;;24.73;;
37785;SDS011;23625;48.784;9.336;2022-08-19T05:03:58;45.80;;;25.95;;
37785;SDS011;23625;48.784;9.336;2022-08-19T05:06:25;41.17;;;23.65;;
37785;SDS011;23625;48.784;9.336;2022-08-19T05:08:52;39.95;;;25.15;;
37785;SDS011;23625;48.784;9.336;2022-08-19T05:11:25;42.15;;;26.42;;
37785;SDS011;23625;48.784;9.336;2022-08-19T05:13:53;43.60;;;25.35;;
37785;SDS011;23625;48.784;9.336;2022-08-19T05:16:20;43.55;;;25.83;;
37785;SDS011;23625;48.784;9.336;2022-08-19T05:18:47;45.53;;;26.50;;
37785;SDS011;23625;48.784;9.336;2022-08-19T05:21:40;40.10;;;23.60;;
37785;SDS011;23625;48.784;9.336;2022-08-19T05:24:24;41.33;;;25.08;;
37785;SDS011;23625;48.784;9.336;2022-08-19T05:26:51;40.92;;;24.92;;
37785;SDS011;23625;48.784;9.336;2022-08-19T05:29:21;39.83;;;25.55;;
37785;SDS011;23625;48.784;9.336;2022-08-19T05:31:49;39.65;;;24.13;;
37785;SDS011;23625;48.784;9.336;2022-08-19T05:34:17;43.60;;;25.42;;
37785;SDS011;23625;48.784;9.336;2022-08-19T05:36:44;40.33;;;23.83;;
37785;SDS011;23625;48.784;9.336;2022-08-19T05:39:12;42.45;;;24.40;;
37785;SDS011;23625;48.784;9.336;2022-08-19T05:41:44;42.25;;;24.48;;
37785;SDS011;23625;48.784;9.336;2022-08-19T05:44:12;39.35;;;23.88;;
37785;SDS011;23625;48.784;9.336;2022-08-19T05:46:38;42.60;;;26.02;;
37785;SDS011;23625;48.784;9.336;2022-08-19T05:49:05;41.95;;;25.38;;
37785;SDS011;23625;48.784;9.336;2022-08-19T05:51:32;47.30;;;24.70;;
37785;SDS011;23625;48.784;9.336;2022-08-19T05:53:59;44.88;;;25.92;;
37785;SDS011;23625;48.784;9.336;2022-08-19T05:56:29;42.67;;;26.30;;
37785;SDS011;23625;48.784;9.336;2022-08-19T05:58:55;36.70;;;23.35;;
37785;SDS011;23625;48.784;9.336;2022-08-19T06:01:23;43.20;;;26.90;;
37785;SDS011;23625;48.784;9.336;2022-08-19T06:03:49;46.42;;;27.27;;
37785;SDS011;23625;48.784;9.336;2022-08-19T06:06:16;37.58;;;24.98;;
37785;SDS011;23625;48.784;9.336;2022-08-19T06:08:42;40.47;;;25.58;;
37785;SDS011;23625;48.784;9.336;2022-08-19T06:11:15;40.25;;;25.00;;
37785;SDS011;23625;48.784;9.336;2022-08-19T06:13:41;44.42;;;25.48;;
37785;SDS011;23625;48.784;9.336;2022-08-19T06:16:08;42.08;;;27.30;;
37785;SDS011;23625;48.784;9.336;2022-08-19T06:18:33;42.30;;;26.05;;
37785;SDS011;23625;48.784;9.336;2022-08-19T06:20:59;44.88;;;26.88;;
37785;SDS011;23625;48.784;9.336;2022-08-19T06:23:28;46.10;;;26.20;;
37785;SDS011;23625;48.784;9.336;2022-08-19T06:25:54;39.83;;;25.85;;
37785;SDS011;23625;48.784;9.336;2022-08-19T06:28:20;45.78;;;26.73;;
37785;SDS011;23625;48.784;9.336;2022-08-19T06:30:45;44.42;;;27.85;;
37785;SDS011;23625;48.784;9.336;2022-08-19T06:33:11;45.13;;;25.98;;
37785;SDS011;23625;48.784;9.336;2022-08-19T06:35:40;50.75;;;27.55;;
37785;SDS011;23625;48.784;9.336;2022-08-19T06:38:06;52.78;;;28.13;;
37785;SDS011;23625;48.784;9.336;2022-08-19T06:40:33;40.35;;;26.85;;
37785;SDS011;23625;48.784;9.336;2022-08-19T06:43:03;47.15;;;27.70;;
37785;SDS011;23625;48.784;9.336;2022-08-19T06:45:29;48.75;;;26.63;;
37785;SDS011;23625;48.784;9.336;2022-08-19T06:47:55;44.63;;;25.52;;
37785;SDS011;23625;48.784;9.336;2022-08-19T06:50:21;44.53;;;27.15;;
37785;SDS011;23625;48.784;9.336;2022-08-19T06:52:48;42.45;;;26.63;;
37785;SDS011;23625;48.784;9.336;2022-08-19T06:55:14;47.00;;;28.35;;
37785;SDS011;23625;48.784;9.336;2022-08-19T06:57:40;47.17;;;27.63;;
37785;SDS011;23625;48.784;9.336;2022-08-19T07:00:07;41.25;;;25.15;;
37785;SDS011;23625;48.784;9.336;2022-08-19T07:02:39;49.28;;;29.30;;
37785;SDS011;23625;48.784;9.336;2022-08-19T07:05:06;46.03;;;27.98;;
37785;SDS011;23625;48.784;9.336;2022-08-19T07:07:32;44.30;;;27.60;;
37785;SDS011;23625;48.784;9.336;2022-08-19T07:09:59;47.75;;;28.27;;
37785;SDS011;23625;48.784;9.336;2022-08-19T07:12:26;51.65;;;27.63;;
37785;SDS011;23625;48.784;9.336;2022-08-19T07:14:53;45.28;;;28.15;;
37785;SDS011;23625;48.784;9.336;2022-08-19T07:17:19;53.25;;;29.85;;
37785;SDS011;23625;48.784;9.336;2022-08-19T07:19:45;52.22;;;30.67;;
37785;SDS011;23625;48.784;9.336;2022-08-19T07:22:10;50.30;;;29.10;;
37785;SDS011;23625;48.784;9.336;2022-08-19T07:24:36;48.60;;;30.08;;
37785;SDS011;23625;48.784;9.336;2022-08-19T07:27:03;47.60;;;29.42;;
37785;SDS011;23625;48.784;9.336;2022-08-19T07:29:31;48.97;;;30.70;;
37785;SDS011;23625;48.784;9.336;2022-08-19T07:31:58;48.17;;;29.80;;
37785;SDS011;23625;48.784;9.336;2022-08-19T07:34:26;51.38;;;29.40;;
37785;SDS011;23625;48.784;9.336;2022-08-19T07:36:53;50.15;;;31.50;;
37785;SDS011;23625;48.784;9.336;2022-08-19T07:39:21;54.70;;;28.80;;
37785;SDS011;23625;48.784;9.336;2022-08-19T07:41:49;47.58;;;30.40;;
37785;SDS011;23625;48.784;9.336;2022-08-19T07:44:16;53.95;;;32.80;;
37785;SDS011;23625;48.784;9.336;2022-08-19T07:46:43;49.17;;;30.80;;
37785;SDS011;23625;48.784;9.336;2022-08-19T07:49:11;54.22;;;30.90;;
37785;SDS011;23625;48.784;9.336;2022-08-19T07:51:42;55.65;;;32.85;;
37785;SDS011;23625;48.784;9.336;2022-08-19T07:54:09;48.50;;;30.10;;
37785;SDS011;23625;48.784;9.336;2022-08-19T07:56:34;52.72;;;31.95;;
37785;SDS011;23625;48.784;9.336;2022-08-19T07:59:00;216.77;;;134.38;;
37785;SDS011;23625;48.784;9.336;2022-08-19T08:01:26;77.28;;;46.53;;
37785;SDS011;23625;48.784;9.336;2022-08-19T08:03:54;50.47;;;31.48;;
37785;SDS011;23625;48.784;9.336;2022-08-19T08:06:41;57.25;;;32.30;;
37785;SDS011;23625;48.784;9.336;2022-08-19T08:09:27;48.08;;;31.75;;
37785;SDS011;23625;48.784;9.336;2022-08-19T08:12:05;51.67;;;29.77;;
37785;SDS011;23625;48.784;9.336;2022-08-19T08:14:39;53.65;;;31.00;;
37785;SDS011;23625;48.784;9.336;2022-08-19T08:17:06;47.08;;;30.23;;
37785;SDS011;23625;48.784;9.336;2022-08-19T08:19:33;53.40;;;31.00;;
37785;SDS011;23625;48.784;9.336;2022-08-19T08:21:59;49.45;;;29.63;;
37785;SDS011;23625;48.784;9.336;2022-08-19T08:24:26;46.10;;;28.95;;
37785;SDS011;23625;48.784;9.336;2022-08-19T08:26:55;47.20;;;28.73;;
37785;SDS011;23625;48.784;9.336;2022-08-19T08:29:22;48.17;;;27.80;;
37785;SDS011;23625;48.784;9.336;2022-08-19T08:31:52;51.45;;;29.55;;
37785;SDS011;23625;48.784;9.336;2022-08-19T08:34:18;47.63;;;27.83;;
37785;SDS011;23625;48.784;9.336;2022-08-19T08:36:45;48.03;;;27.58;;
37785;SDS011;23625;48.784;9.336;2022-08-19T08:39:11;61.40;;;30.05;;
37785;SDS011;23625;48.784;9.336;2022-08-19T08:47:02;49.97;;;29.75;;
37785;SDS011;23625;48.784;9.336;2022-08-19T08:49:45;44.95;;;27.55;;
37785;SDS011;23625;48.784;9.336;2022-08-19T08:52:24;48.33;;;28.48;;
37785;SDS011;23625;48.784;9.336;2022-08-19T08:54:53;42.55;;;27.60;;
37785;SDS011;23625;48.784;9.336;2022-08-19T08:59:56;40.85;;;25.25;;
37785;SDS011;23625;48.784;9.336;2022-08-19T09:02:25;42.75;;;25.95;;
37785;SDS011;23625;48.784;9.336;2022-08-19T09:04:51;42.95;;;26.05;;
37785;SDS011;23625;48.784;9.336;2022-08-19T09:07:25;42.35;;;25.65;;
37785;SDS011;23625;48.784;9.336;2022-08-19T09:10:02;39.63;;;25.00;;
37785;SDS011;23625;48.784;9.336;2022-08-19T09:12:45;46.00;;;26.27;;
37785;SDS011;23625;48.784;9.336;2022-08-19T09:15:29;48.53;;;27.00;;
37785;SDS011;23625;48.784;9.336;2022-08-19T09:18:00;41.60;;;25.85;;
37785;SDS011;23625;48.784;9.336;2022-08-19T09:20:27;47.47;;;26.98;;
37785;SDS011;23625;48.784;9.336;2022-08-19T09:22:53;40.88;;;24.45;;
37785;SDS011;23625;48.784;9.336;2022-08-19T09:25:20;41.00;;;26.42;;
37785;SDS011;23625;48.784;9.336;2022-08-19T09:27:47;41.92;;;25.20;;
37785;SDS011;23625;48.784;9.336;2022-08-19T09:30:16;42.47;;;25.25;;
37785;SDS011;23625;48.784;9.336;2022-08-19T09:32:43;41.03;;;24.98;;
37785;SDS011;23625;48.784;9.336;2022-08-19T09:35:10;42.33;;;26.17;;
37785;SDS011;23625;48.784;9.336;2022-08-19T09:37:37;41.22;;;26.33;;
37785;SDS011;23625;48.784;9.336;2022-08-19T09:40:03;38.65;;;25.02;;
37785;SDS011;23625;48.784;9.336;2022-08-19T09:42:29;46.13;;;28.67;;
37785;SDS011;23625;48.784;9.336;2022-08-19T09:44:55;43.72;;;26.98;;
37785;SDS011;23625;48.784;9.336;2022-08-19T09:47:21;40.20;;;25.45;;
37785;SDS011;23625;48.784;9.336;2022-08-19T09:49:46;43.63;;;25.35;;
37785;SDS011;23625;48.784;9.336;2022-08-19T09:52:13;43.97;;;26.65;;
37785;SDS011;23625;48.784;9.336;2022-08-19T09:54:41;46.20;;;28.33;;
37785;SDS011;23625;48.784;9.336;2022-08-19T09:57:06;43.17;;;26.60;;
37785;SDS011;23625;48.784;9.336;2022-08-19T09:59:32;40.50;;;26.10;;
37785;SDS011;23625;48.784;9.336;2022-08-19T10:01:58;43.90;;;26.63;;
37785;SDS011;23625;48.784;9.336;2022-08-19T10:04:23;44.20;;;27.10;;
37785;SDS011;23625;48.784;9.336;2022-08-19T10:07:09;38.43;;;25.20;;
37785;SDS011;23625;48.784;9.336;2022-08-19T10:09:35;39.47;;;25.92;;
37785;SDS011;23625;48.784;9.336;2022-08-19T10:12:00;42.97;;;23.83;;
37785;SDS011;23625;48.784;9.336;2022-08-19T10:14:27;39.80;;;25.45;;
37785;SDS011;23625;48.784;9.336;2022-08-19T10:16:53;48.20;;;27.50;;
37785;SDS011;23625;48.784;9.336;2022-08-19T10:19:19;39.78;;;26.23;;
37785;SDS011;23625;48.784;9.336;2022-08-19T10:21:46;45.03;;;26.35;;
37785;SDS011;23625;48.784;9.336;2022-08-19T10:24:11;38.25;;;24.35;;
37785;SDS011;23625;48.784;9.336;2022-08-19T10:26:38;42.28;;;26.83;;
37785;SDS011;23625;48.784;9.336;2022-08-19T10:29:06;48.03;;;26.85;;
37785;SDS011;23625;48.784;9.336;2022-08-19T10:31:33;42.42;;;25.52;;
37785;SDS011;23625;48.784;9.336;2022-08-19T10:33:59;40.33;;;25.17;;
37785;SDS011;23625;48.784;9.336;2022-08-19T10:36:27;43.95;;;26.77;;
37785;SDS011;23625;48.784;9.336;2022-08-19T10:38:58;41.97;;;27.33;;
37785;SDS011;23625;48.784;9.336;2022-08-19T10:41:27;44.08;;;26.27;;
37785;SDS011;23625;48.784;9.336;2022-08-19T10:43:55;45.03;;;26.85;;
37785;SDS011;23625;48.784;9.336;2022-08-19T10:46:27;131.93;;;77.47;;
37785;SDS011;23625;48.784;9.336;2022-08-19T10:48:56;93.15;;;53.70;;
37785;SDS011;23625;48.784;9.336;2022-08-19T10:51:21;46.08;;;29.17;;
37785;SDS011;23625;48.784;9.336;2022-08-19T10:54:06;43.33;;;27.42;;
37785;SDS011;23625;48.784;9.336;2022-08-19T10:56:33;47.17;;;28.52;;
37785;SDS011;23625;48.784;9.336;2022-08-19T10:59:24;44.55;;;29.05;;
37785;SDS011;23625;48.784;9.336;2022-08-19T11:02:04;49.00;;;29.77;;
37785;SDS011;23625;48.784;9.336;2022-08-19T11:04:34;50.22;;;29.75;;
37785;SDS011;23625;48.784;9.336;2022-08-19T11:07:00;49.80;;;29.25;;
37785;SDS011;23625;48.784;9.336;2022-08-19T11:09:26;51.20;;;30.27;;
37785;SDS011;23625;48.784;9.336;2022-08-19T11:11:54;51.28;;;30.15;;
37785;SDS011;23625;48.784;9.336;2022-08-19T11:14:21;52.33;;;31.30;;
37785;SDS011;23625;48.784;9.336;2022-08-19T11:16:49;53.40;;;31.00;;
37785;SDS011;23625;48.784;9.336;2022-08-19T11:19:15;52.40;;;31.95;;
37785;SDS011;23625;48.784;9.336;2022-08-19T11:21:44;48.05;;;30.95;;
37785;SDS011;23625;48.784;9.336;2022-08-19T11:24:15;51.22;;;30.45;;
37785;SDS011;23625;48.784;9.336;2022-08-19T11:26:43;53.33;;;32.70;;
37785;SDS011;23625;48.784;9.336;2022-08-19T11:29:10;52.47;;;30.60;;
37785;SDS011;23625;48.784;9.336;2022-08-19T11:31:38;57.10;;;31.80;;
37785;SDS011;23625;48.784;9.336;2022-08-19T11:34:06;48.17;;;31.65;;
37785;SDS011;23625;48.784;9.336;2022-08-19T11:36:36;52.63;;;31.42;;
37785;SDS011;23625;48.784;9.336;2022-08-19T11:39:04;55.50;;;32.70;;
37785;SDS011;23625;48.784;9.336;2022-08-19T11:41:31;53.38;;;31.48;;
37785;SDS011;23625;48.784;9.336;2022-08-19T11:43:57;56.25;;;31.20;;
37785;SDS011;23625;48.784;9.336;2022-08-19T11:46:25;50.47;;;31.52;;
37785;SDS011;23625;48.784;9.336;2022-08-19T11:48:54;54.65;;;33.03;;
37785;SDS011;23625;48.784;9.336;2022-08-19T11:51:25;51.47;;;31.83;;
37785;SDS011;23625;48.784;9.336;2022-08-19T11:53:52;52.40;;;31.27;;
37785;SDS011;23625;48.784;9.336;2022-08-19T11:56:19;54.78;;;31.63;;
37785;SDS011;23625;48.784;9.336;2022-08-19T11:58:46;49.40;;;31.38;;
37785;SDS011;23625;48.784;9.336;2022-08-19T12:01:13;54.38;;;31.50;;
37785;SDS011;23625;48.784;9.336;2022-08-19T12:03:41;50.03;;;31.17;;
37785;SDS011;23625;48.784;9.336;2022-08-19T12:06:11;46.33;;;28.65;;
37785;SDS011;23625;48.784;9.336;2022-08-19T12:08:39;51.90;;;29.38;;
37785;SDS011;23625;48.784;9.336;2022-08-19T12:11:06;45.78;;;29.50;;
37785;SDS011;23625;48.784;9.336;2022-08-19T12:13:35;47.03;;;29.65;;
37785;SDS011;23625;48.784;9.336;2022-08-19T12:16:07;48.97;;;30.67;;
37785;SDS011;23625;48.784;9.336;2022-08-19T12:18:37;49.17;;;28.75;;
37785;SDS011;23625;48.784;9.336;2022-08-19T12:21:03;52.40;;;29.00;;
37785;SDS011;23625;48.784;9.336;2022-08-19T12:23:29;49.38;;;28.98;;
37785;SDS011;23625;48.784;9.336;2022-08-19T12:25:54;49.00;;;28.90;;
37785;SDS011;23625;48.784;9.336;2022-08-19T12:28:22;41.05;;;26.88;;
37785;SDS011;23625;48.784;9.336;2022-08-19T12:30:49;46.65;;;25.63;;
37785;SDS011;23625;48.784;9.336;2022-08-19T12:33:16;44.60;;;27.77;;
37785;SDS011;23625;48.784;9.336;2022-08-19T12:35:43;49.10;;;28.83;;
37785;SDS011;23625;48.784;9.336;2022-08-19T12:38:11;38.25;;;25.52;;
37785;SDS011;23625;48.784;9.336;2022-08-19T12:40:38;45.08;;;27.48;;
37785;SDS011;23625;48.784;9.336;2022-08-19T12:43:05;44.75;;;28.52;;
37785;SDS011;23625;48.784;9.336;2022-08-19T12:45:31;45.55;;;26.52;;
37785;SDS011;23625;48.784;9.336;2022-08-19T12:47:56;44.33;;;27.35;;
37785;SDS011;23625;48.784;9.336;2022-08-19T12:50:22;49.15;;;28.80;;
37785;SDS011;23625;48.784;9.336;2022-08-19T12:52:48;43.75;;;27.38;;
37785;SDS011;23625;48.784;9.336;2022-08-19T12:55:14;46.28;;;27.33;;
37785;SDS011;23625;48.784;9.336;2022-08-19T12:57:40;43.88;;;28.33;;
37785;SDS011;23625;48.784;9.336;2022-08-19T13:00:13;45.55;;;27.90;;
37785;SDS011;23625;48.784;9.336;2022-08-19T13:02:44;42.55;;;27.40;;
37785;SDS011;23625;48.784;9.336;2022-08-19T13:05:12;50.83;;;28.50;;
37785;SDS011;23625;48.784;9.336;2022-08-19T13:07:40;41.72;;;27.45;;
37785;SDS011;23625;48.784;9.336;2022-08-19T13:10:09;95.35;;;54.38;;
37785;SDS011;23625;48.784;9.336;2022-08-19T13:12:37;100.28;;;62.42;;
37785;SDS011;23625;48.784;9.336;2022-08-19T13:15:04;54.80;;;32.00;;
37785;SDS011;23625;48.784;9.336;2022-08-19T13:17:30;51.22;;;31.67;;
37785;SDS011;23625;48.784;9.336;2022-08-19T13:19:55;50.65;;;32.83;;
37785;SDS011;23625;48.784;9.336;2022-08-19T13:22:21;52.85;;;32.55;;
37785;SDS011;23625;48.784;9.336;2022-08-19T13:24:47;47.92;;;32.22;;
37785;SDS011;23625;48.784;9.336;2022-08-19T13:27:13;51.75;;;31.50;;
37785;SDS011;23625;48.784;9.336;2022-08-19T13:29:40;59.00;;;35.22;;
37785;SDS011;23625;48.784;9.336;2022-08-19T13:32:25;58.05;;;33.47;;
37785;SDS011;23625;48.784;9.336;2022-08-19T13:35:09;56.47;;;33.78;;
37785;SDS011;23625;48.784;9.336;2022-08-19T13:37:35;56.30;;;33.70;;
37785;SDS011;23625;48.784;9.336;2022-08-19T13:40:07;59.08;;;32.65;;
37785;SDS011;23625;48.784;9.336;2022-08-19T13:42:36;58.15;;;33.85;;
37785;SDS011;23625;48.784;9.336;2022-08-19T13:45:02;53.30;;;33.35;;
37785;SDS011;23625;48.784;9.336;2022-08-19T13:47:29;60.13;;;34.85;;
37785;SDS011;23625;48.784;9.336;2022-08-19T13:49:55;58.72;;;34.42;;
37785;SDS011;23625;48.784;9.336;2022-08-19T13:52:20;58.80;;;35.75;;
37785;SDS011;23625;48.784;9.336;2022-08-19T13:54:46;60.00;;;34.88;;
37785;SDS011;23625;48.784;9.336;2022-08-19T13:57:13;55.72;;;35.97;;
37785;SDS011;23625;48.784;9.336;2022-08-19T13:59:38;59.22;;;35.08;;
37785;SDS011;23625;48.784;9.336;2022-08-19T14:02:04;57.10;;;35.13;;
37785;SDS011;23625;48.784;9.336;2022-08-19T14:04:30;60.38;;;35.25;;
37785;SDS011;23625;48.784;9.336;2022-08-19T14:06:55;59.28;;;34.05;;
37785;SDS011;23625;48.784;9.336;2022-08-19T14:09:21;56.90;;;33.08;;
37785;SDS011;23625;48.784;9.336;2022-08-19T14:11:47;54.92;;;33.55;;
37785;SDS011;23625;48.784;9.336;2022-08-19T14:14:12;57.38;;;34.05;;
37785;SDS011;23625;48.784;9.336;2022-08-19T14:16:38;61.10;;;34.92;;
37785;SDS011;23625;48.784;9.336;2022-08-19T14:19:03;53.08;;;33.72;;
37785;SDS011;23625;48.784;9.336;2022-08-19T14:21:29;56.47;;;33.40;;
37785;SDS011;23625;48.784;9.336;2022-08-19T14:23:55;54.35;;;33.95;;
37785;SDS011;23625;48.784;9.336;2022-08-19T14:26:21;58.10;;;34.75;;
37785;SDS011;23625;48.784;9.336;2022-08-19T14:28:47;62.60;;;36.28;;
37785;SDS011;23625;48.784;9.336;2022-08-19T14:31:13;63.88;;;36.60;;
37785;SDS011;23625;48.784;9.336;2022-08-19T14:33:45;61.40;;;36.05;;
37785;SDS011;23625;48.784;9.336;2022-08-19T14:36:11;62.22;;;36.55;;
37785;SDS011;23625;48.784;9.336;2022-08-19T14:38:37;59.70;;;37.55;;